sensor_id;sensor_type;location;lat;lon;timestamp;pressure;altitude;pressure_sealevel;temperature;humidity
1207;BME280;593;53.184;8.216;2023-06-22T00:00:51;101628.50;;;21.89;88.31
1207;BME280;593;53.184;8.216;2023-06-22T00:03:18;101620.88;;;21.86;88.58
1207;BME280;593;53.184;8.216;2023-06-22T00:05:45;101617.59;;;21.84;88.73
1207;BME280;593;53.184;8.216;2023-06-22T00:08:10;101619.53;;;21.83;88.43
1207;BME280;593;53.184;8.216;2023-06-22T00:10:35;101609.31;;;21.75;88.47
1207;BME280;593;53.184;8.216;2023-06-22T00:13:01;101621.03;;;21.81;89.45
1207;BME280;593;53.184;8.216;2023-06-22T00:15:26;101620.09;;;21.77;90.09
1207;BME280;593;53.184;8.216;2023-06-22T00:17:52;101624.00;;;21.76;90.43
1207;BME280;593;53.184;8.216;2023-06-22T00:20:17;101619.09;;;21.72;90.13
1207;BME280;593;53.184;8.216;2023-06-22T00:22:46;101628.25;;;21.73;90.20
1207;BME280;593;53.184;8.216;2023-06-22T00:25:13;101625.66;;;21.68;89.85
1207;BME280;593;53.184;8.216;2023-06-22T00:27:38;101625.31;;;21.69;89.82
1207;BME280;593;53.184;8.216;2023-06-22T00:30:04;101618.34;;;21.63;89.46
1207;BME280;593;53.184;8.216;2023-06-22T00:32:29;101620.97;;;21.60;89.49
1207;BME280;593;53.184;8.216;2023-06-22T00:34:55;101620.16;;;21.59;90.12
1207;BME280;593;53.184;8.216;2023-06-22T00:37:20;101614.59;;;21.59;90.60
1207;BME280;593;53.184;8.216;2023-06-22T00:39:51;101603.06;;;21.57;90.27
1207;BME280;593;53.184;8.216;2023-06-22T00:42:16;101604.88;;;21.53;90.26
1207;BME280;593;53.184;8.216;2023-06-22T00:44:42;101605.88;;;21.49;90.12
1207;BME280;593;53.184;8.216;2023-06-22T00:47:07;101607.00;;;21.48;90.43
1207;BME280;593;53.184;8.216;2023-06-22T00:49:32;101612.91;;;21.46;90.36
1207;BME280;593;53.184;8.216;2023-06-22T00:51:58;101615.66;;;21.46;90.44
1207;BME280;593;53.184;8.216;2023-06-22T00:54:24;101609.50;;;21.41;90.59
1207;BME280;593;53.184;8.216;2023-06-22T00:56:53;101603.00;;;21.37;90.90
1207;BME280;593;53.184;8.216;2023-06-22T00:59:23;101609.03;;;21.39;91.13
1207;BME280;593;53.184;8.216;2023-06-22T01:01:49;101602.50;;;21.35;91.57
1207;BME280;593;53.184;8.216;2023-06-22T01:04:15;101615.69;;;21.38;92.18
1207;BME280;593;53.184;8.216;2023-06-22T01:07:06;101587.06;;;21.25;92.78
1207;BME280;593;53.184;8.216;2023-06-22T01:09:47;101604.97;;;21.36;92.77
1207;BME280;593;53.184;8.216;2023-06-22T01:12:15;101601.22;;;21.32;92.99
1207;BME280;593;53.184;8.216;2023-06-22T01:14:47;101601.22;;;21.32;93.08
1207;BME280;593;53.184;8.216;2023-06-22T01:17:19;101589.66;;;21.30;92.66
1207;BME280;593;53.184;8.216;2023-06-22T01:19:49;101596.50;;;21.33;92.73
1207;BME280;593;53.184;8.216;2023-06-22T01:22:19;101594.06;;;21.31;93.13
1207;BME280;593;53.184;8.216;2023-06-22T01:24:57;101607.56;;;21.33;93.59
1207;BME280;593;53.184;8.216;2023-06-22T01:27:56;101601.22;;;21.32;94.38
1207;BME280;593;53.184;8.216;2023-06-22T01:30:27;101587.56;;;21.27;94.26
1207;BME280;593;53.184;8.216;2023-06-22T01:32:57;101593.59;;;21.29;94.23
1207;BME280;593;53.184;8.216;2023-06-22T01:35:24;101596.69;;;21.28;94.75
1207;BME280;593;53.184;8.216;2023-06-22T01:37:50;101599.78;;;21.26;94.67
1207;BME280;593;53.184;8.216;2023-06-22T01:40:15;101587.06;;;21.25;94.81
1207;BME280;593;53.184;8.216;2023-06-22T01:42:42;101590.31;;;21.27;95.08
1207;BME280;593;53.184;8.216;2023-06-22T01:45:10;101584.31;;;21.25;95.03
1207;BME280;593;53.184;8.216;2023-06-22T01:47:36;101596.19;;;21.26;95.09
1207;BME280;593;53.184;8.216;2023-06-22T01:50:01;101575.88;;;21.22;95.18
1207;BME280;593;53.184;8.216;2023-06-22T01:52:27;101574.25;;;21.21;95.17
1207;BME280;593;53.184;8.216;2023-06-22T01:54:52;101573.59;;;21.24;95.29
1207;BME280;593;53.184;8.216;2023-06-22T01:57:18;101576.66;;;21.22;95.28
1207;BME280;593;53.184;8.216;2023-06-22T01:59:56;101578.66;;;21.22;95.19
1207;BME280;593;53.184;8.216;2023-06-22T02:02:24;101576.19;;;21.20;95.10
1207;BME280;593;53.184;8.216;2023-06-22T02:04:58;101575.25;;;21.16;95.12
1207;BME280;593;53.184;8.216;2023-06-22T02:07:29;101573.13;;;21.13;94.78
1207;BME280;593;53.184;8.216;2023-06-22T02:09:58;101577.53;;;21.14;94.83
1207;BME280;593;53.184;8.216;2023-06-22T02:12:25;101586.47;;;21.11;94.94
1207;BME280;593;53.184;8.216;2023-06-22T02:17:18;101579.19;;;21.06;94.87
1207;BME280;593;53.184;8.216;2023-06-22T02:19:43;101581.41;;;21.04;94.97
1207;BME280;593;53.184;8.216;2023-06-22T02:22:09;101579.81;;;21.03;94.54
1207;BME280;593;53.184;8.216;2023-06-22T02:24:34;101573.28;;;20.99;94.82
1207;BME280;593;53.184;8.216;2023-06-22T02:27:01;101581.59;;;20.99;94.87
1207;BME280;593;53.184;8.216;2023-06-22T02:29:26;101582.28;;;20.96;94.68
1207;BME280;593;53.184;8.216;2023-06-22T02:31:53;101588.47;;;20.93;94.96
1207;BME280;593;53.184;8.216;2023-06-22T02:34:18;101580.81;;;20.90;95.13
1207;BME280;593;53.184;8.216;2023-06-22T02:36:47;101588.47;;;20.93;95.20
1207;BME280;593;53.184;8.216;2023-06-22T02:41:44;101586.19;;;20.87;95.22
1207;BME280;593;53.184;8.216;2023-06-22T02:44:09;101581.31;;;20.84;94.72
1207;BME280;593;53.184;8.216;2023-06-22T02:46:35;101574.81;;;20.80;94.09
1207;BME280;593;53.184;8.216;2023-06-22T02:49:01;101587.50;;;20.81;93.91
1207;BME280;593;53.184;8.216;2023-06-22T02:51:26;101588.50;;;20.76;94.54
1207;BME280;593;53.184;8.216;2023-06-22T02:53:52;101582.78;;;20.73;94.92
1207;BME280;593;53.184;8.216;2023-06-22T02:56:22;101587.50;;;20.72;94.92
1207;BME280;593;53.184;8.216;2023-06-22T02:58:51;101584.09;;;20.67;95.25
1207;BME280;593;53.184;8.216;2023-06-22T03:01:16;101565.91;;;20.57;95.21
1207;BME280;593;53.184;8.216;2023-06-22T03:03:41;101575.31;;;20.65;95.54
1207;BME280;593;53.184;8.216;2023-06-22T03:06:07;101585.25;;;20.66;95.83
1207;BME280;593;53.184;8.216;2023-06-22T03:08:33;101592.59;;;20.62;96.12
1207;BME280;593;53.184;8.216;2023-06-22T03:10:59;101592.91;;;20.60;95.48
1207;BME280;593;53.184;8.216;2023-06-22T03:13:24;101590.78;;;20.57;95.21
1207;BME280;593;53.184;8.216;2023-06-22T03:15:50;101589.47;;;20.55;95.78
1207;BME280;593;53.184;8.216;2023-06-22T03:18:15;101589.34;;;20.51;95.78
1207;BME280;593;53.184;8.216;2023-06-22T03:20:41;101596.47;;;20.52;96.15
1207;BME280;593;53.184;8.216;2023-06-22T03:23:06;101598.75;;;20.50;95.89
1207;BME280;593;53.184;8.216;2023-06-22T03:25:32;101591.63;;;20.49;96.37
1207;BME280;593;53.184;8.216;2023-06-22T03:27:58;101588.34;;;20.47;96.48
1207;BME280;593;53.184;8.216;2023-06-22T03:30:26;101601.88;;;20.49;96.26
1207;BME280;593;53.184;8.216;2023-06-22T03:32:51;101605.75;;;20.48;96.81
1207;BME280;593;53.184;8.216;2023-06-22T03:35:16;101608.84;;;20.46;96.64
1207;BME280;593;53.184;8.216;2023-06-22T03:37:42;101598.78;;;20.41;96.24
1207;BME280;593;53.184;8.216;2023-06-22T03:40:08;101607.06;;;20.41;96.58
1207;BME280;593;53.184;8.216;2023-06-22T03:42:34;101607.25;;;20.36;96.73
1207;BME280;593;53.184;8.216;2023-06-22T03:45:03;101615.66;;;20.40;96.76
1207;BME280;593;53.184;8.216;2023-06-22T03:47:29;101608.34;;;20.35;96.67
1207;BME280;593;53.184;8.216;2023-06-22T03:49:54;101617.13;;;20.37;96.68
1207;BME280;593;53.184;8.216;2023-06-22T03:52:21;101605.94;;;20.34;96.40
1207;BME280;593;53.184;8.216;2023-06-22T03:54:47;101607.88;;;20.33;97.06
1207;BME280;593;53.184;8.216;2023-06-22T03:57:12;101609.34;;;20.31;97.43
1207;BME280;593;53.184;8.216;2023-06-22T03:59:38;101602.16;;;20.30;97.44
1207;BME280;593;53.184;8.216;2023-06-22T04:02:06;101608.19;;;20.32;97.65
1207;BME280;593;53.184;8.216;2023-06-22T04:04:31;101616.47;;;20.32;98.06
1207;BME280;593;53.184;8.216;2023-06-22T04:06:57;101616.81;;;20.30;98.20
1207;BME280;593;53.184;8.216;2023-06-22T04:09:22;101614.38;;;20.29;98.33
1207;BME280;593;53.184;8.216;2023-06-22T04:11:47;101621.22;;;20.31;98.86
1207;BME280;593;53.184;8.216;2023-06-22T04:14:13;101619.91;;;20.29;98.72
1207;BME280;593;53.184;8.216;2023-06-22T04:16:38;101624.63;;;20.28;98.64
1207;BME280;593;53.184;8.216;2023-06-22T04:19:03;101620.69;;;20.29;98.47
1207;BME280;593;53.184;8.216;2023-06-22T04:21:29;101619.41;;;20.27;98.96
1207;BME280;593;53.184;8.216;2023-06-22T04:23:54;101629.31;;;20.28;99.17
1207;BME280;593;53.184;8.216;2023-06-22T04:26:20;101633.72;;;20.29;99.27
1207;BME280;593;53.184;8.216;2023-06-22T04:28:46;101625.44;;;20.29;99.97
1207;BME280;593;53.184;8.216;2023-06-22T04:31:17;101623.31;;;20.34;99.73
1207;BME280;593;53.184;8.216;2023-06-22T04:33:44;101618.94;;;20.33;100.00
1207;BME280;593;53.184;8.216;2023-06-22T04:36:09;101621.34;;;20.35;100.00
1207;BME280;593;53.184;8.216;2023-06-22T04:38:38;101623.00;;;20.36;100.00
1207;BME280;593;53.184;8.216;2023-06-22T04:41:03;101617.94;;;20.38;100.00
1207;BME280;593;53.184;8.216;2023-06-22T04:43:29;101623.16;;;20.39;100.00
1207;BME280;593;53.184;8.216;2023-06-22T04:45:56;101624.78;;;20.40;100.00
1207;BME280;593;53.184;8.216;2023-06-22T04:48:21;101623.16;;;20.39;100.00
1207;BME280;593;53.184;8.216;2023-06-22T04:50:47;101615.38;;;20.41;100.00
1207;BME280;593;53.184;8.216;2023-06-22T04:53:12;101623.50;;;20.47;100.00
1207;BME280;593;53.184;8.216;2023-06-22T04:55:38;101620.72;;;20.47;100.00
1207;BME280;593;53.184;8.216;2023-06-22T04:58:07;101612.09;;;20.48;100.00
1207;BME280;593;53.184;8.216;2023-06-22T05:00:32;101620.88;;;20.50;100.00
1207;BME280;593;53.184;8.216;2023-06-22T05:03:01;101608.03;;;20.54;100.00
1207;BME280;593;53.184;8.216;2023-06-22T05:05:28;101604.47;;;20.54;100.00
1207;BME280;593;53.184;8.216;2023-06-22T05:07:56;101608.84;;;20.55;100.00
1207;BME280;593;53.184;8.216;2023-06-22T05:10:25;101604.78;;;20.61;100.00
1207;BME280;593;53.184;8.216;2023-06-22T05:12:50;101613.56;;;20.63;100.00
1207;BME280;593;53.184;8.216;2023-06-22T05:15:16;101602.84;;;20.61;100.00
1207;BME280;593;53.184;8.216;2023-06-22T05:17:41;101605.25;;;20.63;100.00
1207;BME280;593;53.184;8.216;2023-06-22T05:20:13;101611.44;;;20.68;100.00
1207;BME280;593;53.184;8.216;2023-06-22T05:22:39;101608.34;;;20.70;100.00
1207;BME280;593;53.184;8.216;2023-06-22T05:25:07;101613.22;;;20.73;100.00
1207;BME280;593;53.184;8.216;2023-06-22T05:27:33;101611.56;;;20.72;100.00
1207;BME280;593;53.184;8.216;2023-06-22T05:30:01;101609.81;;;20.76;99.61
1207;BME280;593;53.184;8.216;2023-06-22T05:32:27;101607.69;;;20.81;99.77
1207;BME280;593;53.184;8.216;2023-06-22T05:34:52;101608.47;;;20.82;99.64
1207;BME280;593;53.184;8.216;2023-06-22T05:37:18;101607.19;;;20.88;99.79
1207;BME280;593;53.184;8.216;2023-06-22T05:39:43;101602.28;;;20.93;99.69
1207;BME280;593;53.184;8.216;2023-06-22T05:42:08;101601.63;;;20.96;99.48
1207;BME280;593;53.184;8.216;2023-06-22T05:44:34;101603.53;;;21.04;99.08
1207;BME280;593;53.184;8.216;2023-06-22T05:46:59;101618.06;;;21.10;98.76
1207;BME280;593;53.184;8.216;2023-06-22T05:49:25;101599.16;;;21.12;98.56
1207;BME280;593;53.184;8.216;2023-06-22T05:51:55;101609.41;;;21.20;98.14
1207;BME280;593;53.184;8.216;2023-06-22T05:54:20;101610.19;;;21.29;97.26
1207;BME280;593;53.184;8.216;2023-06-22T05:56:46;101601.72;;;21.34;96.41
1207;BME280;593;53.184;8.216;2023-06-22T05:59:11;101607.66;;;21.45;95.21
1207;BME280;593;53.184;8.216;2023-06-22T06:01:37;101603.94;;;21.49;95.25
1207;BME280;593;53.184;8.216;2023-06-22T06:04:03;101613.47;;;21.60;93.80
1207;BME280;593;53.184;8.216;2023-06-22T06:06:29;101609.84;;;21.68;93.21
1207;BME280;593;53.184;8.216;2023-06-22T06:08:55;101604.13;;;21.73;91.52
1207;BME280;593;53.184;8.216;2023-06-22T06:11:21;101603.59;;;21.80;90.92
1207;BME280;593;53.184;8.216;2023-06-22T06:13:46;101605.69;;;21.92;89.85
1207;BME280;593;53.184;8.216;2023-06-22T06:16:12;101605.97;;;21.99;89.83
1207;BME280;593;53.184;8.216;2023-06-22T06:18:37;101595.97;;;22.06;89.12
1207;BME280;593;53.184;8.216;2023-06-22T06:21:03;101601.44;;;22.15;88.22
1207;BME280;593;53.184;8.216;2023-06-22T06:23:28;101610.63;;;22.27;86.96
1207;BME280;593;53.184;8.216;2023-06-22T06:25:54;101601.66;;;22.30;86.69
1207;BME280;593;53.184;8.216;2023-06-22T06:28:19;101604.47;;;22.43;85.00
1207;BME280;593;53.184;8.216;2023-06-22T06:30:44;101603.75;;;22.54;84.30
1207;BME280;593;53.184;8.216;2023-06-22T06:33:12;101607.63;;;22.62;82.85
1207;BME280;593;53.184;8.216;2023-06-22T06:35:38;101610.75;;;22.72;82.03
1207;BME280;593;53.184;8.216;2023-06-22T06:38:03;101610.53;;;22.77;81.18
1207;BME280;593;53.184;8.216;2023-06-22T06:40:28;101615.34;;;22.89;81.26
1207;BME280;593;53.184;8.216;2023-06-22T06:42:54;101619.19;;;22.96;80.74
1207;BME280;593;53.184;8.216;2023-06-22T06:45:23;101620.34;;;23.08;80.43
1207;BME280;593;53.184;8.216;2023-06-22T06:47:50;101617.84;;;23.15;79.92
1207;BME280;593;53.184;8.216;2023-06-22T06:50:16;101609.78;;;23.22;79.74
1207;BME280;593;53.184;8.216;2023-06-22T06:52:41;101618.25;;;23.37;79.88
1207;BME280;593;53.184;8.216;2023-06-22T06:55:07;101616.19;;;23.46;79.47
1207;BME280;593;53.184;8.216;2023-06-22T06:57:34;101614.91;;;23.56;78.73
1207;BME280;593;53.184;8.216;2023-06-22T07:00:00;101610.41;;;23.64;78.19
1207;BME280;593;53.184;8.216;2023-06-22T07:02:26;101614.91;;;23.80;78.10
1207;BME280;593;53.184;8.216;2023-06-22T07:04:54;101614.34;;;23.87;76.80
1207;BME280;593;53.184;8.216;2023-06-22T07:07:22;101620.25;;;23.97;76.21
1207;BME280;593;53.184;8.216;2023-06-22T07:09:48;101619.81;;;24.07;75.42
1207;BME280;593;53.184;8.216;2023-06-22T07:12:13;101618.84;;;24.15;74.76
1207;BME280;593;53.184;8.216;2023-06-22T07:14:38;101612.34;;;24.23;75.09
1207;BME280;593;53.184;8.216;2023-06-22T07:17:04;101611.47;;;24.35;74.59
1207;BME280;593;53.184;8.216;2023-06-22T07:19:29;101610.19;;;24.45;74.33
1207;BME280;593;53.184;8.216;2023-06-22T07:21:56;101615.72;;;24.57;73.66
1207;BME280;593;53.184;8.216;2023-06-22T07:24:22;101600.63;;;24.58;73.34
1207;BME280;593;53.184;8.216;2023-06-22T07:26:48;101609.13;;;24.77;72.33
1207;BME280;593;53.184;8.216;2023-06-22T07:29:18;101596.34;;;24.88;72.13
1207;BME280;593;53.184;8.216;2023-06-22T07:31:46;101607.78;;;24.99;71.46
1207;BME280;593;53.184;8.216;2023-06-22T07:34:12;101613.19;;;25.07;69.49
1207;BME280;593;53.184;8.216;2023-06-22T07:36:37;101607.00;;;25.14;68.91
1207;BME280;593;53.184;8.216;2023-06-22T07:39:03;101596.94;;;25.25;68.72
1207;BME280;593;53.184;8.216;2023-06-22T07:41:29;101606.03;;;25.37;68.97
1207;BME280;593;53.184;8.216;2023-06-22T07:43:55;101600.72;;;25.48;69.50
1207;BME280;593;53.184;8.216;2023-06-22T07:46:20;101612.97;;;25.59;69.04
1207;BME280;593;53.184;8.216;2023-06-22T07:48:46;101600.09;;;25.70;68.77
1207;BME280;593;53.184;8.216;2023-06-22T07:51:11;101597.09;;;25.79;68.53
1207;BME280;593;53.184;8.216;2023-06-22T07:53:43;101608.53;;;25.89;68.14
1207;BME280;593;53.184;8.216;2023-06-22T07:56:11;101591.13;;;25.96;67.66
1207;BME280;593;53.184;8.216;2023-06-22T07:58:37;101603.41;;;26.10;67.51
1207;BME280;593;53.184;8.216;2023-06-22T08:01:03;101592.81;;;26.16;67.34
1207;BME280;593;53.184;8.216;2023-06-22T08:03:29;101583.88;;;26.26;65.64
1207;BME280;593;53.184;8.216;2023-06-22T08:05:55;101566.69;;;26.24;65.23
1207;BME280;593;53.184;8.216;2023-06-22T08:08:20;101583.88;;;26.45;64.75
1207;BME280;593;53.184;8.216;2023-06-22T08:10:45;101583.31;;;26.55;64.35
1207;BME280;593;53.184;8.216;2023-06-22T08:13:11;101580.69;;;26.66;63.38
1207;BME280;593;53.184;8.216;2023-06-22T08:15:36;101584.00;;;26.71;63.46
1207;BME280;593;53.184;8.216;2023-06-22T08:18:02;101566.69;;;26.82;63.92
1207;BME280;593;53.184;8.216;2023-06-22T08:20:27;101572.09;;;26.94;63.32
1207;BME280;593;53.184;8.216;2023-06-22T08:22:54;101566.19;;;26.99;62.09
1207;BME280;593;53.184;8.216;2023-06-22T08:25:19;101566.31;;;27.06;62.27
1207;BME280;593;53.184;8.216;2023-06-22T08:27:46;101575.72;;;27.17;63.40
1207;BME280;593;53.184;8.216;2023-06-22T08:30:12;101575.81;;;27.24;62.84
1207;BME280;593;53.184;8.216;2023-06-22T08:32:38;101573.97;;;27.31;61.32
1207;BME280;593;53.184;8.216;2023-06-22T08:35:04;101569.59;;;27.34;60.16
1207;BME280;593;53.184;8.216;2023-06-22T08:37:31;101575.72;;;27.40;60.67
1207;BME280;593;53.184;8.216;2023-06-22T08:39:59;101575.84;;;27.47;59.58
1207;BME280;593;53.184;8.216;2023-06-22T08:42:26;101578.75;;;27.54;60.09
1207;BME280;593;53.184;8.216;2023-06-22T08:44:52;101572.03;;;27.58;59.90
1207;BME280;593;53.184;8.216;2023-06-22T08:47:18;101571.78;;;27.67;59.41
1207;BME280;593;53.184;8.216;2023-06-22T08:49:43;101565.84;;;27.72;59.64
1207;BME280;593;53.184;8.216;2023-06-22T08:52:09;101553.59;;;27.80;60.14
1207;BME280;593;53.184;8.216;2023-06-22T08:54:35;101559.28;;;27.87;59.91
1207;BME280;593;53.184;8.216;2023-06-22T08:57:02;101573.38;;;27.94;59.40
1207;BME280;593;53.184;8.216;2023-06-22T08:59:27;101566.72;;;28.02;60.23
1207;BME280;593;53.184;8.216;2023-06-22T09:01:53;101562.38;;;28.05;59.54
1207;BME280;593;53.184;8.216;2023-06-22T09:04:18;101558.06;;;28.11;59.60
1207;BME280;593;53.184;8.216;2023-06-22T09:06:47;101563.75;;;28.18;59.51
1207;BME280;593;53.184;8.216;2023-06-22T09:09:13;101558.63;;;28.23;59.85
1207;BME280;593;53.184;8.216;2023-06-22T09:11:39;101555.84;;;28.27;59.00
1207;BME280;593;53.184;8.216;2023-06-22T09:14:05;101559.06;;;28.29;59.33
1207;BME280;593;53.184;8.216;2023-06-22T09:16:31;101559.19;;;28.36;59.60
1207;BME280;593;53.184;8.216;2023-06-22T09:18:57;101556.03;;;28.41;58.53
1207;BME280;593;53.184;8.216;2023-06-22T09:21:23;101559.28;;;28.43;58.29
1207;BME280;593;53.184;8.216;2023-06-22T09:23:48;101554.09;;;28.45;59.15
1207;BME280;593;53.184;8.216;2023-06-22T09:26:20;101550.88;;;28.46;58.58
1207;BME280;593;53.184;8.216;2023-06-22T09:28:45;101546.94;;;28.51;58.54
1207;BME280;593;53.184;8.216;2023-06-22T09:31:11;101550.97;;;28.53;57.25
1207;BME280;593;53.184;8.216;2023-06-22T09:33:37;101530.13;;;28.51;55.93
1207;BME280;593;53.184;8.216;2023-06-22T09:36:06;101529.00;;;28.55;55.13
1207;BME280;593;53.184;8.216;2023-06-22T09:38:35;101526.56;;;28.54;55.58
1207;BME280;593;53.184;8.216;2023-06-22T09:41:00;101521.03;;;28.57;57.50
1207;BME280;593;53.184;8.216;2023-06-22T09:43:27;101516.28;;;28.62;58.18
1207;BME280;593;53.184;8.216;2023-06-22T09:45:52;101516.69;;;28.64;58.62
1207;BME280;593;53.184;8.216;2023-06-22T09:48:17;101514.78;;;28.71;58.16
1207;BME280;593;53.184;8.216;2023-06-22T09:50:43;101511.97;;;28.71;58.28
1207;BME280;593;53.184;8.216;2023-06-22T09:53:09;101519.28;;;28.79;58.23
1207;BME280;593;53.184;8.216;2023-06-22T09:55:34;101513.72;;;28.83;59.06
1207;BME280;593;53.184;8.216;2023-06-22T09:57:59;101511.75;;;28.87;59.28
1207;BME280;593;53.184;8.216;2023-06-22T10:00:25;101494.81;;;28.76;58.46
1207;BME280;593;53.184;8.216;2023-06-22T10:02:52;101511.44;;;28.95;59.36
1207;BME280;593;53.184;8.216;2023-06-22T10:05:17;101510.22;;;28.96;59.20
1207;BME280;593;53.184;8.216;2023-06-22T10:07:42;101494.22;;;28.97;58.14
1207;BME280;593;53.184;8.216;2023-06-22T10:10:10;101493.91;;;29.05;59.05
1207;BME280;593;53.184;8.216;2023-06-22T10:12:35;101503.91;;;29.06;58.00
1207;BME280;593;53.184;8.216;2023-06-22T10:15:01;101504.34;;;29.08;58.52
1207;BME280;593;53.184;8.216;2023-06-22T10:17:26;101487.94;;;29.10;58.49
1207;BME280;593;53.184;8.216;2023-06-22T10:19:52;101490.34;;;29.12;56.18
1207;BME280;593;53.184;8.216;2023-06-22T10:22:17;101491.16;;;29.12;57.09
1207;BME280;593;53.184;8.216;2023-06-22T10:24:43;101484.38;;;29.13;56.97
1207;BME280;593;53.184;8.216;2023-06-22T10:27:12;101491.59;;;29.18;57.68
1207;BME280;593;53.184;8.216;2023-06-22T10:29:38;101490.88;;;29.21;55.35
1207;BME280;593;53.184;8.216;2023-06-22T10:32:04;101489.63;;;29.18;55.50
1207;BME280;593;53.184;8.216;2023-06-22T10:34:29;101492.06;;;29.20;56.93
1207;BME280;593;53.184;8.216;2023-06-22T10:36:55;101488.06;;;29.25;57.70
1207;BME280;593;53.184;8.216;2023-06-22T10:39:20;101490.47;;;29.26;58.17
1207;BME280;593;53.184;8.216;2023-06-22T10:41:45;101483.69;;;29.27;57.60
1207;BME280;593;53.184;8.216;2023-06-22T10:44:11;101476.09;;;29.31;57.64
1207;BME280;593;53.184;8.216;2023-06-22T10:46:37;101462.50;;;29.33;58.09
1207;BME280;593;53.184;8.216;2023-06-22T10:49:02;101471.78;;;29.41;58.41
1207;BME280;593;53.184;8.216;2023-06-22T10:51:28;101472.56;;;29.41;55.21
1207;BME280;593;53.184;8.216;2023-06-22T10:53:53;101465.72;;;29.39;55.35
1207;BME280;593;53.184;8.216;2023-06-22T10:56:18;101468.16;;;29.40;56.29
1207;BME280;593;53.184;8.216;2023-06-22T10:58:45;101467.78;;;29.45;57.43
1207;BME280;593;53.184;8.216;2023-06-22T11:01:10;101459.41;;;29.52;58.96
1207;BME280;593;53.184;8.216;2023-06-22T11:03:35;101456.66;;;29.56;57.58
1207;BME280;593;53.184;8.216;2023-06-22T11:06:01;101460.66;;;29.58;57.01
1207;BME280;593;53.184;8.216;2023-06-22T11:08:26;101449.84;;;29.60;56.67
1207;BME280;593;53.184;8.216;2023-06-22T11:10:51;101451.88;;;29.63;57.26
1207;BME280;593;53.184;8.216;2023-06-22T11:13:17;101455.53;;;29.71;58.25
1207;BME280;593;53.184;8.216;2023-06-22T11:15:42;101460.31;;;29.74;57.67
1207;BME280;593;53.184;8.216;2023-06-22T11:18:08;101447.91;;;29.75;57.38
1207;BME280;593;53.184;8.216;2023-06-22T11:20:33;101453.19;;;29.80;55.59
1207;BME280;593;53.184;8.216;2023-06-22T11:23:03;101450.78;;;29.82;55.10
1207;BME280;593;53.184;8.216;2023-06-22T11:25:28;101451.59;;;29.82;54.30
1207;BME280;593;53.184;8.216;2023-06-22T11:27:54;101435.56;;;29.83;54.67
1207;BME280;593;53.184;8.216;2023-06-22T11:30:19;101434.41;;;29.91;55.82
1207;BME280;593;53.184;8.216;2023-06-22T11:32:45;101441.22;;;29.97;56.66
1207;BME280;593;53.184;8.216;2023-06-22T11:35:10;101428.41;;;30.00;56.02
1207;BME280;593;53.184;8.216;2023-06-22T11:37:35;101430.44;;;30.06;57.23
1207;BME280;593;53.184;8.216;2023-06-22T11:40:00;101430.03;;;30.11;56.81
1207;BME280;593;53.184;8.216;2023-06-22T11:42:28;101424.84;;;30.17;55.94
1207;BME280;593;53.184;8.216;2023-06-22T11:44:53;101426.44;;;30.21;56.21
1207;BME280;593;53.184;8.216;2023-06-22T11:47:18;101411.63;;;30.24;54.54
1207;BME280;593;53.184;8.216;2023-06-22T11:49:44;101414.44;;;30.31;54.70
1207;BME280;593;53.184;8.216;2023-06-22T11:52:09;101411.69;;;30.35;56.51
1207;BME280;593;53.184;8.216;2023-06-22T11:54:34;101417.31;;;30.42;57.17
1207;BME280;593;53.184;8.216;2023-06-22T11:57:00;101411.69;;;30.49;57.28
1207;BME280;593;53.184;8.216;2023-06-22T11:59:25;101418.94;;;30.54;56.90
1207;BME280;593;53.184;8.216;2023-06-22T12:01:50;101425.34;;;30.58;55.26
1207;BME280;593;53.184;8.216;2023-06-22T12:04:16;101423.34;;;30.62;54.31
1207;BME280;593;53.184;8.216;2023-06-22T12:06:42;101418.16;;;30.64;54.11
1207;BME280;593;53.184;8.216;2023-06-22T12:09:09;101416.94;;;30.65;54.70
1207;BME280;593;53.184;8.216;2023-06-22T12:11:34;101414.91;;;30.72;54.48
1207;BME280;593;53.184;8.216;2023-06-22T12:13:59;101405.72;;;30.79;54.49
1207;BME280;593;53.184;8.216;2023-06-22T12:16:27;101399.66;;;30.80;54.51
1207;BME280;593;53.184;8.216;2023-06-22T12:18:53;101402.88;;;30.82;54.68
1207;BME280;593;53.184;8.216;2023-06-22T12:21:19;101403.28;;;30.84;53.65
1207;BME280;593;53.184;8.216;2023-06-22T12:23:44;101402.09;;;30.89;53.43
1207;BME280;593;53.184;8.216;2023-06-22T12:26:09;101398.88;;;30.90;53.30
1207;BME280;593;53.184;8.216;2023-06-22T12:28:34;101395.66;;;30.92;53.39
1207;BME280;593;53.184;8.216;2023-06-22T12:31:00;101394.47;;;30.93;53.20
1207;BME280;593;53.184;8.216;2023-06-22T12:33:25;101387.22;;;30.92;52.66
1207;BME280;593;53.184;8.216;2023-06-22T12:35:50;101391.66;;;30.93;52.27
1207;BME280;593;53.184;8.216;2023-06-22T12:38:15;101391.66;;;30.93;52.58
1207;BME280;593;53.184;8.216;2023-06-22T12:40:41;101387.22;;;30.92;52.23
1207;BME280;593;53.184;8.216;2023-06-22T12:43:06;101385.22;;;30.92;52.44
1207;BME280;593;53.184;8.216;2023-06-22T12:45:32;101371.59;;;30.91;52.59
1207;BME280;593;53.184;8.216;2023-06-22T12:47:58;101366.78;;;30.91;53.02
1207;BME280;593;53.184;8.216;2023-06-22T12:50:25;101365.97;;;30.91;53.43
1207;BME280;593;53.184;8.216;2023-06-22T12:52:50;101349.06;;;30.87;53.29
1207;BME280;593;53.184;8.216;2023-06-22T12:55:15;101345.44;;;30.87;53.46
1207;BME280;593;53.184;8.216;2023-06-22T12:57:40;101348.25;;;30.87;53.41
1207;BME280;593;53.184;8.216;2023-06-22T13:00:06;101339.84;;;30.83;53.37
1207;BME280;593;53.184;8.216;2023-06-22T13:02:33;101339.84;;;30.83;53.22
1207;BME280;593;53.184;8.216;2023-06-22T13:04:59;101343.84;;;30.82;54.06
1207;BME280;593;53.184;8.216;2023-06-22T13:07:24;101342.66;;;30.80;54.26
1207;BME280;593;53.184;8.216;2023-06-22T13:09:50;101343.06;;;30.78;54.09
1207;BME280;593;53.184;8.216;2023-06-22T13:12:22;101348.69;;;30.78;53.90
1207;BME280;593;53.184;8.216;2023-06-22T13:14:48;101343.44;;;30.77;54.36
1207;BME280;593;53.184;8.216;2023-06-22T13:17:13;101336.25;;;30.76;54.32
1207;BME280;593;53.184;8.216;2023-06-22T13:19:39;101337.06;;;30.73;54.73
1207;BME280;593;53.184;8.216;2023-06-22T13:22:05;101344.28;;;30.74;54.45